Seven Fields, Pennsylvania
Current Conditions -  °F | °C
As of 2:35 PM on Thursday 18 Dec 2014 (Local Time) from KBTP Reporting Station
Overcast Overcast  
Wind Chill: 20°   Ceiling: 1700
Heat Index: 28°   Visibility: 5mi
Dew Point: 21°   Wind: 9mph
Humidity: 74%   Direction: 240°WSW
Pressure: 30.14"   Gusts: NA
Location:  40.7051°N, 80.0184°W
Report Text: KBTP 181935Z AUTO 24008KT 5SM OVC017 M02/M06 A3014 RMK AO1
Loading
Personal Weather Stations






























Interactive Weather Map New forecast layout! Learn more

10-Day Weather Forecast

Advertisements
Track Severe Weather on mobile